createdAt,value
2022-08-21T00:01:56.021Z,17.92
2022-08-21T00:04:29.203Z,17.93
2022-08-21T00:06:59.165Z,17.91
2022-08-21T00:09:27.760Z,17.83
2022-08-21T00:11:56.258Z,17.85
2022-08-21T00:14:26.158Z,17.88
2022-08-21T00:17:01.245Z,17.95
2022-08-21T00:19:30.446Z,17.90
2022-08-21T00:21:59.324Z,17.91
2022-08-21T00:24:29.221Z,17.90
2022-08-21T00:26:57.777Z,17.92
2022-08-21T00:29:27.635Z,17.85
2022-08-21T00:31:56.117Z,17.90
2022-08-21T00:34:24.850Z,18.00
2022-08-21T00:36:53.299Z,18.03
2022-08-21T00:39:21.752Z,18.00
2022-08-21T00:41:50.374Z,18.01
2022-08-21T00:44:18.930Z,18.10
2022-08-21T00:46:49.335Z,18.06
2022-08-21T00:49:20.864Z,18.09
2022-08-21T00:51:54.040Z,18.06
2022-08-21T00:54:26.749Z,18.05
2022-08-21T00:57:01.188Z,18.10
2022-08-21T00:59:36.998Z,18.12
2022-08-21T01:02:09.950Z,18.02
2022-08-21T01:04:38.622Z,18.05
2022-08-21T01:07:07.978Z,18.17
2022-08-21T01:09:37.316Z,18.14
2022-08-21T01:12:06.866Z,18.05
2022-08-21T01:14:36.353Z,18.12
2022-08-21T01:17:08.156Z,18.13
2022-08-21T01:19:36.694Z,17.98
2022-08-21T01:22:07.277Z,18.02
2022-08-21T01:24:36.235Z,18.02
2022-08-21T01:27:06.171Z,17.95
2022-08-21T01:29:44.358Z,17.93
2022-08-21T01:32:16.967Z,17.92
2022-08-21T01:34:50.203Z,17.97
2022-08-21T01:37:22.307Z,18.03
2022-08-21T01:39:51.053Z,17.91
2022-08-21T01:42:19.938Z,17.95
2022-08-21T01:44:48.543Z,18.06
2022-08-21T01:47:18.680Z,18.00
2022-08-21T01:49:47.710Z,18.06
2022-08-21T01:52:16.224Z,18.10
2022-08-21T01:54:46.241Z,18.12
2022-08-21T01:57:26.219Z,17.99
2022-08-21T01:59:55.115Z,18.09
2022-08-21T02:02:23.808Z,18.05
2022-08-21T02:04:52.255Z,17.98
2022-08-21T02:07:20.829Z,18.08
2022-08-21T02:09:50.784Z,17.94
2022-08-21T02:12:19.279Z,18.01
2022-08-21T02:14:47.773Z,18.00
2022-08-21T02:17:16.292Z,18.11
2022-08-21T02:19:44.738Z,18.13
2022-08-21T02:22:13.896Z,18.15
2022-08-21T02:24:54.557Z,18.18
2022-08-21T02:27:27.408Z,18.22
2022-08-21T02:29:58.603Z,18.28
2022-08-21T02:32:28.019Z,18.31
2022-08-21T02:34:56.867Z,18.38
2022-08-21T02:37:26.556Z,18.45
2022-08-21T02:39:55.234Z,18.37
2022-08-21T02:42:25.086Z,18.38
2022-08-21T02:44:53.500Z,18.44
2022-08-21T02:47:21.990Z,18.55
2022-08-21T02:49:50.415Z,18.60
2022-08-21T02:52:18.942Z,18.27
2022-08-21T02:54:47.834Z,18.31
2022-08-21T02:57:16.344Z,18.33
2022-08-21T02:59:46.439Z,18.36
2022-08-21T03:02:15.612Z,18.44
2022-08-21T03:04:46.683Z,18.40
2022-08-21T03:07:16.280Z,18.48
2022-08-21T03:09:55.213Z,18.52
2022-08-21T03:12:24.788Z,18.54
2022-08-21T03:14:56.456Z,18.45
2022-08-21T03:17:29.478Z,18.38
2022-08-21T03:19:59.365Z,18.40
2022-08-21T03:22:30.905Z,18.32
2022-08-21T03:24:59.688Z,18.47
2022-08-21T03:27:28.773Z,18.33
2022-08-21T03:30:00.184Z,17.90
2022-08-21T03:32:28.935Z,17.91
2022-08-21T03:34:57.387Z,18.10
2022-08-21T03:37:26.379Z,18.18
2022-08-21T03:39:55.745Z,18.28
2022-08-21T03:42:24.827Z,18.20
2022-08-21T03:44:53.765Z,18.25
2022-08-21T03:47:23.990Z,18.34
2022-08-21T03:49:53.080Z,18.42
2022-08-21T03:52:21.617Z,18.42
2022-08-21T03:54:51.247Z,18.51
2022-08-21T03:57:20.302Z,18.39
2022-08-21T03:59:48.977Z,18.34
2022-08-21T04:02:23.468Z,18.30
2022-08-21T04:04:51.956Z,18.23
2022-08-21T04:07:20.398Z,18.25
2022-08-21T04:09:48.837Z,18.28
2022-08-21T04:12:17.294Z,18.25
2022-08-21T04:14:45.793Z,18.20
2022-08-21T04:17:14.333Z,18.21
2022-08-21T04:19:44.164Z,18.20
2022-08-21T04:22:12.822Z,18.18
2022-08-21T04:24:41.334Z,18.16
2022-08-21T04:27:09.806Z,18.15
2022-08-21T04:29:40.045Z,18.08
2022-08-21T04:32:09.023Z,18.02
2022-08-21T04:34:37.476Z,18.04
2022-08-21T04:37:07.448Z,17.99
2022-08-21T04:39:35.943Z,17.78
2022-08-21T04:42:05.895Z,17.85
2022-08-21T04:44:34.368Z,17.66
2022-08-21T04:47:02.884Z,17.77
2022-08-21T04:49:32.052Z,17.74
2022-08-21T04:52:01.479Z,17.50
2022-08-21T04:54:31.322Z,17.35
2022-08-21T04:57:06.605Z,17.31
2022-08-21T04:59:42.695Z,17.40
2022-08-21T05:02:12.130Z,17.34
2022-08-21T05:04:47.802Z,17.57
2022-08-21T05:07:42.412Z,17.48
2022-08-21T05:10:14.906Z,17.45
2022-08-21T05:12:44.980Z,17.56
2022-08-21T05:15:15.166Z,17.35
2022-08-21T05:17:44.249Z,17.34
2022-08-21T05:20:22.204Z,17.39
2022-08-21T05:22:50.693Z,17.31
2022-08-21T05:25:22.275Z,17.35
2022-08-21T05:27:52.757Z,17.36
2022-08-21T05:30:22.268Z,17.32
2022-08-21T05:32:50.738Z,17.53
2022-08-21T05:35:19.199Z,17.58
2022-08-21T05:37:47.700Z,17.42
2022-08-21T05:40:22.347Z,17.47
2022-08-21T05:42:56.570Z,17.58
2022-08-21T05:45:41.781Z,17.71
2022-08-21T05:48:16.380Z,17.77
2022-08-21T05:50:47.145Z,17.96
2022-08-21T05:53:17.493Z,17.84
2022-08-21T05:55:47.282Z,18.11
2022-08-21T05:58:22.333Z,18.19
2022-08-21T06:00:53.745Z,18.22
2022-08-21T06:03:25.615Z,18.27
2022-08-21T06:05:54.683Z,18.27
2022-08-21T06:08:26.127Z,18.09
2022-08-21T06:10:57.755Z,17.57
2022-08-21T06:13:28.679Z,17.71
2022-08-21T06:16:09.501Z,17.67
2022-08-21T06:18:40.066Z,17.71
2022-08-21T06:21:09.323Z,17.67
2022-08-21T06:23:37.904Z,17.72
2022-08-21T06:26:09.277Z,17.93
2022-08-21T06:28:39.957Z,18.16
2022-08-21T06:31:16.079Z,18.26
2022-08-21T06:33:44.874Z,18.33
2022-08-21T06:36:13.618Z,18.41
2022-08-21T06:38:42.322Z,18.53
2022-08-21T06:41:24.380Z,18.66
2022-08-21T06:43:58.974Z,18.82
2022-08-21T06:46:31.573Z,18.89
2022-08-21T06:49:00.379Z,19.06
2022-08-21T06:51:29.314Z,19.18
2022-08-21T06:53:59.406Z,19.26
2022-08-21T06:56:28.076Z,19.29
2022-08-21T06:58:58.095Z,19.26
2022-08-21T07:01:28.830Z,19.29
2022-08-21T07:03:57.594Z,19.20
2022-08-21T07:06:26.886Z,19.47
2022-08-21T07:08:58.874Z,19.63
2022-08-21T07:11:28.259Z,19.71
2022-08-21T07:13:59.416Z,19.74
2022-08-21T07:16:27.895Z,19.83
2022-08-21T07:18:56.474Z,19.97
2022-08-21T07:21:26.173Z,20.02
2022-08-21T07:23:55.033Z,20.05
2022-08-21T07:26:25.582Z,20.06
2022-08-21T07:28:55.401Z,20.14
2022-08-21T07:31:27.475Z,19.66
2022-08-21T07:33:56.561Z,19.72
2022-08-21T07:36:25.438Z,20.16
2022-08-21T07:38:54.168Z,20.27
2022-08-21T07:41:26.260Z,20.23
2022-08-21T07:43:55.006Z,19.84
2022-08-21T07:46:25.215Z,19.97
2022-08-21T07:48:54.311Z,20.13
2022-08-21T07:51:28.589Z,20.26
2022-08-21T07:54:00.018Z,20.10
2022-08-21T07:56:29.426Z,20.12
2022-08-21T07:58:58.757Z,19.92
2022-08-21T08:01:28.895Z,19.81
2022-08-21T08:03:57.580Z,20.04
2022-08-21T08:06:26.926Z,20.16
2022-08-21T08:08:55.402Z,19.81
2022-08-21T08:11:23.882Z,19.90
2022-08-21T08:13:54.359Z,19.90
2022-08-21T08:16:23.029Z,19.89
2022-08-21T08:18:53.412Z,19.63
2022-08-21T08:21:22.068Z,19.71
2022-08-21T08:23:50.837Z,19.88
2022-08-21T08:26:19.287Z,20.00
2022-08-21T08:28:48.644Z,20.00
2022-08-21T08:31:17.750Z,20.21
2022-08-21T08:33:46.314Z,20.29
2022-08-21T08:36:19.913Z,20.18
2022-08-21T08:38:49.892Z,20.22
2022-08-21T08:41:23.847Z,20.09
2022-08-21T08:44:06.829Z,20.00
2022-08-21T08:46:43.135Z,20.01
2022-08-21T08:49:23.237Z,19.33
2022-08-21T08:52:01.587Z,19.57
2022-08-21T08:54:35.438Z,19.96
2022-08-21T08:57:09.644Z,20.05
2022-08-21T08:59:43.774Z,19.81
2022-08-21T09:02:15.292Z,20.19
2022-08-21T09:04:46.435Z,20.24
2022-08-21T09:07:33.009Z,19.82
2022-08-21T09:10:16.268Z,20.03
2022-08-21T09:12:59.155Z,19.63
2022-08-21T09:15:36.679Z,19.84
2022-08-21T09:18:36.454Z,19.75
2022-08-21T09:21:21.590Z,20.14
2022-08-21T09:24:02.471Z,20.31
2022-08-21T09:26:49.277Z,20.46
2022-08-21T09:29:24.398Z,20.68
2022-08-21T09:31:53.586Z,20.93
2022-08-21T09:34:29.801Z,20.59
2022-08-21T09:36:59.961Z,20.64
2022-08-21T09:39:45.657Z,20.39
2022-08-21T09:42:26.990Z,20.22
2022-08-21T09:45:14.801Z,20.12
2022-08-21T09:47:44.098Z,20.34
2022-08-21T09:50:18.240Z,20.19
2022-08-21T09:52:52.298Z,21.15
2022-08-21T09:55:53.917Z,21.28
2022-08-21T09:58:23.212Z,21.50
2022-08-21T10:01:07.455Z,22.16
2022-08-21T10:03:36.097Z,21.11
2022-08-21T10:06:11.739Z,21.02
2022-08-21T10:08:43.337Z,20.70
2022-08-21T10:11:18.325Z,21.33
2022-08-21T10:14:01.155Z,21.80
2022-08-21T10:16:44.236Z,22.50
2022-08-21T10:19:27.422Z,22.87
2022-08-21T10:22:12.549Z,22.74
2022-08-21T10:25:00.859Z,22.76
2022-08-21T10:27:45.657Z,23.59
2022-08-21T10:30:21.636Z,24.23
2022-08-21T10:33:09.902Z,24.07
2022-08-21T10:35:47.087Z,24.04
2022-08-21T10:42:16.651Z,24.95
2022-08-21T10:45:12.436Z,25.20
2022-08-21T10:47:53.762Z,25.18
2022-08-21T10:50:34.191Z,25.48
2022-08-21T10:53:34.408Z,24.00
2022-08-21T10:56:15.266Z,24.18
2022-08-21T10:59:01.501Z,24.40
2022-08-21T11:01:41.275Z,25.28
2022-08-21T11:04:18.139Z,25.81
2022-08-21T11:06:55.364Z,26.63
2022-08-21T11:09:28.845Z,27.42
2022-08-21T11:12:11.118Z,27.56
2022-08-21T11:14:56.090Z,26.34
2022-08-21T11:17:40.931Z,26.62
2022-08-21T11:20:16.999Z,26.31
2022-08-21T11:23:00.066Z,27.35
2022-08-21T11:25:37.447Z,28.38
2022-08-21T11:28:16.499Z,27.85
2022-08-21T11:31:03.551Z,25.91
2022-08-21T11:33:55.825Z,25.78
2022-08-21T11:36:38.565Z,25.68
2022-08-21T11:39:24.392Z,25.12
2022-08-21T11:42:08.318Z,25.69
2022-08-21T11:44:51.465Z,26.27
2022-08-21T11:47:35.448Z,26.59
2022-08-21T11:50:34.532Z,26.28
2022-08-21T11:53:13.812Z,26.71
2022-08-21T11:55:50.587Z,26.55
2022-08-21T11:58:26.552Z,25.76
2022-08-21T12:01:06.628Z,26.04
2022-08-21T12:03:41.139Z,26.50
2022-08-21T12:06:24.447Z,27.61
2022-08-21T12:09:02.875Z,28.53
2022-08-21T12:11:32.568Z,28.61
2022-08-21T12:14:15.305Z,28.77
2022-08-21T12:16:46.423Z,29.12
2022-08-21T12:19:33.406Z,28.06
2022-08-21T12:22:14.823Z,29.17
2022-08-21T12:24:47.529Z,29.08
2022-08-21T12:27:27.053Z,29.80
2022-08-21T12:30:02.361Z,29.16
2022-08-21T12:32:45.419Z,29.39
2022-08-21T12:35:24.909Z,28.23
2022-08-21T12:38:06.987Z,29.05
2022-08-21T12:40:49.486Z,28.39
2022-08-21T12:43:24.225Z,27.38
2022-08-21T12:45:53.523Z,26.38
2022-08-21T12:48:30.158Z,26.84
2022-08-21T12:51:10.882Z,27.58
2022-08-21T12:53:49.489Z,28.48
2022-08-21T12:56:21.731Z,28.63
2022-08-21T12:58:55.862Z,28.93
2022-08-21T13:01:30.826Z,29.41
2022-08-21T13:04:05.931Z,29.94
2022-08-21T13:06:43.161Z,30.32
2022-08-21T13:09:17.688Z,30.24
2022-08-21T13:11:50.932Z,30.82
2022-08-21T13:14:38.395Z,30.47
2022-08-21T13:17:16.469Z,30.13
2022-08-21T13:19:58.169Z,30.26
2022-08-21T13:22:34.100Z,30.44
2022-08-21T13:25:13.073Z,29.87
2022-08-21T13:27:42.609Z,29.75
2022-08-21T13:30:19.462Z,30.41
2022-08-21T13:32:53.758Z,29.54
2022-08-21T13:35:27.822Z,29.99
2022-08-21T13:37:58.064Z,30.57
2022-08-21T13:40:32.115Z,30.71
2022-08-21T13:43:03.156Z,30.69
2022-08-21T13:45:34.660Z,29.94
2022-08-21T13:48:06.770Z,29.34
2022-08-21T13:50:40.252Z,28.08
2022-08-21T13:53:23.752Z,28.60
2022-08-21T13:55:57.397Z,28.55
2022-08-21T13:58:32.726Z,28.67
2022-08-21T14:01:06.981Z,28.77
2022-08-21T14:03:43.959Z,29.13
2022-08-21T14:06:20.152Z,28.48
2022-08-21T14:08:55.356Z,27.76
2022-08-21T14:11:27.191Z,28.06
2022-08-21T14:14:04.745Z,28.02
2022-08-21T14:16:47.470Z,27.44
2022-08-21T14:19:23.064Z,27.21
2022-08-21T14:21:52.141Z,27.37
2022-08-21T14:24:31.456Z,27.64
2022-08-21T14:27:08.873Z,27.63
2022-08-21T14:29:44.348Z,26.73
2022-08-21T14:32:21.779Z,26.68
2022-08-21T14:34:55.157Z,26.86
2022-08-21T14:37:29.682Z,27.21
2022-08-21T14:39:59.606Z,27.06
2022-08-21T14:42:30.657Z,27.08
2022-08-21T14:45:07.296Z,27.07
2022-08-21T14:47:35.799Z,26.61
2022-08-21T14:50:05.211Z,26.51
2022-08-21T14:52:33.789Z,26.56
2022-08-21T14:55:03.107Z,26.63
2022-08-21T14:57:36.749Z,26.44
2022-08-21T15:00:12.023Z,26.59
2022-08-21T15:02:44.827Z,26.55
2022-08-21T15:05:15.632Z,26.43
2022-08-21T15:07:55.842Z,26.35
2022-08-21T15:10:25.642Z,26.25
2022-08-21T15:12:55.667Z,26.09
2022-08-21T15:15:49.257Z,26.29
2022-08-21T15:18:20.287Z,26.50
2022-08-21T15:20:49.613Z,26.65
2022-08-21T15:23:31.559Z,26.69
2022-08-21T15:26:02.289Z,26.25
2022-08-21T15:28:45.427Z,25.88
2022-08-21T15:31:19.749Z,25.96
2022-08-21T15:33:48.819Z,26.16
2022-08-21T15:36:20.018Z,26.13
2022-08-21T15:38:48.783Z,26.26
2022-08-21T15:45:49.659Z,26.40
2022-08-21T15:48:44.243Z,26.40
2022-08-21T15:54:59.138Z,26.41
2022-08-21T15:57:28.552Z,26.38
2022-08-21T16:00:08.452Z,26.33
2022-08-21T16:02:47.896Z,26.29
2022-08-21T16:05:19.282Z,26.49
2022-08-21T16:07:49.429Z,26.65
2022-08-21T16:10:23.681Z,26.95
2022-08-21T16:13:03.815Z,27.18
2022-08-21T16:15:32.768Z,27.51
2022-08-21T16:18:03.177Z,27.73
2022-08-21T16:20:32.235Z,27.80
2022-08-21T16:23:01.200Z,27.79
2022-08-21T16:25:40.692Z,27.15
2022-08-21T16:28:15.063Z,27.03
2022-08-21T16:30:52.454Z,27.00
2022-08-21T16:33:32.102Z,26.52
2022-08-21T16:36:19.736Z,26.15
2022-08-21T16:40:21.466Z,25.68
2022-08-21T16:42:55.865Z,25.62
2022-08-21T16:45:33.379Z,25.44
2022-08-21T16:48:52.727Z,25.09
2022-08-21T16:51:52.460Z,24.98
2022-08-21T16:54:25.449Z,24.93
2022-08-21T16:57:00.592Z,24.88
2022-08-21T16:59:29.711Z,24.84
2022-08-21T17:01:58.556Z,24.72
2022-08-21T17:05:14.206Z,24.64
2022-08-21T17:08:30.146Z,24.50
2022-08-21T17:11:47.287Z,24.63
2022-08-21T17:14:36.086Z,24.64
2022-08-21T17:25:28.945Z,24.29
2022-08-21T17:30:08.826Z,24.24
2022-08-21T17:33:41.373Z,24.13
2022-08-21T17:37:12.895Z,23.93
2022-08-21T17:44:30.604Z,23.84
2022-08-21T17:47:15.654Z,23.80
2022-08-21T17:50:45.526Z,23.76
2022-08-21T17:55:12.130Z,23.73
2022-08-21T18:04:44.720Z,23.32
2022-08-21T18:10:06.905Z,22.87
2022-08-21T18:23:43.449Z,21.57
2022-08-21T18:26:44.483Z,21.29
2022-08-21T18:29:17.085Z,21.13
2022-08-21T18:31:47.785Z,21.01
2022-08-21T18:34:29.122Z,20.86
2022-08-21T18:36:58.483Z,20.74
2022-08-21T18:39:38.220Z,20.65
2022-08-21T18:42:13.232Z,20.61
2022-08-21T18:44:46.324Z,20.45
2022-08-21T18:47:23.136Z,20.30
2022-08-21T18:49:51.707Z,20.21
2022-08-21T18:52:20.674Z,20.07
2022-08-21T18:54:50.688Z,19.92
2022-08-21T19:00:12.406Z,19.79
2022-08-21T19:02:44.148Z,19.73
2022-08-21T19:05:15.982Z,19.64
2022-08-21T19:07:46.414Z,19.59
2022-08-21T19:10:28.056Z,19.62
2022-08-21T19:13:00.681Z,19.52
2022-08-21T19:15:30.290Z,19.44
2022-08-21T19:18:00.253Z,19.33
2022-08-21T19:20:34.373Z,19.14
2022-08-21T19:23:05.159Z,18.99
2022-08-21T19:25:37.160Z,18.97
2022-08-21T19:28:13.207Z,18.94
2022-08-21T19:30:47.979Z,18.81
2022-08-21T19:33:31.767Z,18.73
2022-08-21T19:36:06.894Z,18.76
2022-08-21T19:38:38.938Z,18.77
2022-08-21T19:41:16.754Z,18.80
2022-08-21T19:43:54.100Z,18.69
2022-08-21T19:46:50.050Z,18.75
2022-08-21T19:50:17.402Z,18.81
2022-08-21T20:01:31.143Z,18.43
2022-08-21T20:04:10.764Z,18.39
2022-08-21T20:08:20.026Z,18.22
2022-08-21T20:12:54.017Z,18.12
2022-08-21T20:17:13.163Z,18.28
2022-08-21T20:30:05.753Z,18.10
2022-08-21T20:34:41.263Z,18.16
2022-08-21T20:38:57.533Z,18.52
2022-08-21T20:42:55.762Z,18.80
2022-08-21T21:31:50.148Z,17.91
2022-08-21T21:34:22.892Z,17.92
2022-08-21T21:36:58.950Z,17.99
2022-08-21T21:39:36.405Z,18.08
2022-08-21T21:42:16.242Z,18.19
2022-08-21T21:45:10.691Z,18.26
2022-08-21T21:48:28.375Z,18.15
2022-08-21T21:51:11.973Z,18.22
2022-08-21T21:53:57.002Z,18.08
2022-08-21T21:56:42.877Z,18.10
2022-08-21T21:59:31.810Z,17.95
2022-08-21T22:02:11.328Z,18.02
2022-08-21T22:04:52.901Z,18.06
2022-08-21T22:07:39.977Z,18.01
2022-08-21T22:10:30.773Z,18.03
2022-08-21T22:13:26.702Z,17.95
2022-08-21T22:16:36.107Z,17.94
2022-08-21T22:19:15.488Z,17.81
2022-08-21T22:21:53.086Z,17.74
2022-08-21T22:24:29.800Z,17.63
2022-08-21T22:27:09.683Z,17.52
2022-08-21T22:29:52.068Z,17.52
2022-08-21T22:32:29.961Z,17.49
2022-08-21T22:35:16.549Z,17.55
2022-08-21T22:37:50.295Z,17.46
2022-08-21T22:40:31.401Z,17.45
2022-08-21T22:43:07.404Z,17.38
2022-08-21T22:46:02.560Z,17.25
2022-08-21T22:48:37.280Z,17.13
2022-08-21T22:51:13.569Z,17.11
2022-08-21T22:53:44.640Z,17.17
2022-08-21T22:56:33.855Z,17.17
2022-08-21T22:59:07.400Z,17.20
2022-08-21T23:01:45.066Z,17.19
2022-08-21T23:04:23.470Z,17.17
2022-08-21T23:06:56.273Z,17.10
2022-08-21T23:09:39.052Z,17.19
2022-08-21T23:12:32.968Z,17.12
2022-08-21T23:15:07.969Z,17.07
2022-08-21T23:17:50.187Z,17.14
2022-08-21T23:20:28.257Z,17.14
2022-08-21T23:23:11.202Z,17.17
2022-08-21T23:26:05.118Z,17.18
2022-08-21T23:29:07.718Z,17.25
2022-08-21T23:31:46.968Z,17.43
2022-08-21T23:34:28.484Z,17.63
2022-08-21T23:37:48.937Z,17.68
2022-08-21T23:40:51.346Z,17.82
2022-08-21T23:43:40.853Z,17.89
2022-08-21T23:46:53.576Z,17.92
2022-08-21T23:49:44.056Z,17.97
2022-08-21T23:52:51.346Z,18.04
2022-08-21T23:55:39.213Z,18.10
2022-08-21T23:58:27.417Z,18.25
